Time;durP1;ratioP1;P1;durP2;ratioP2;P2;SDS_P1;SDS_P2;PMS_P1;PMS_P2;Temp;Humidity;BMP_temperature;BMP_pressure;BME280_temperature;BME280_humidity;BME280_pressure;Samples;Min_cycle;Max_cycle;Signal;HPM_P1;HPM_P2
2023/05/16 00:11:08;;;;;;;10.20;8.20;;;;;;;10.67;79.69;97942.66;437313;1250;108486;-41
2023/05/16 00:21:13;;;;;;;8.60;7.70;;;;;;;10.63;79.84;97951.41;437480;1250;99208;-40
2023/05/16 00:31:17;;;;;;;9.50;6.90;;;;;;;10.65;79.92;97962.52;437491;1250;108238;-42
2023/05/16 00:41:21;;;;;;;8.70;7.20;;;;;;;10.55;80.06;97966.94;437554;1251;99870;-40
2023/05/16 00:51:26;;;;;;;8.10;7.00;;;;;;;10.51;80.01;97967.35;437603;1250;111597;-40
2023/05/16 01:01:30;;;;;;;9.10;8.20;;;;;;;10.51;80.12;97962.76;437561;1250;109157;-42
2023/05/16 01:11:33;;;;;;;10.10;7.90;;;;;;;10.46;80.17;97960.38;437569;1249;98024;-40
2023/05/16 01:21:47;;;;;;;14.50;11.20;;;;;;;10.34;80.11;97955.77;438351;1243;108258;-41
2023/05/16 01:31:51;;;;;;;11.80;10.20;;;;;;;10.08;80.19;97959.87;437551;1248;98086;-40
2023/05/16 01:42:00;;;;;;;12.40;10.60;;;;;;;9.88;80.44;97967.07;437235;1253;111969;-41
2023/05/16 02:02:10;;;;;;;11.40;10.10;;;;;;;9.82;80.87;97978.88;437305;1251;99215;-40
2023/05/16 02:12:15;;;;;;;12.20;10.80;;;;;;;9.83;81.07;97976.13;437296;1253;109380;-42
2023/05/16 02:22:19;;;;;;;14.60;10.50;;;;;;;9.85;81.07;97966.77;437292;1247;99922;-41
2023/05/16 02:32:26;;;;;;;13.10;10.20;;;;;;;9.86;81.15;97973.91;437247;1269;110835;-40
2023/05/16 02:42:34;;;;;;;14.10;11.30;;;;;;;9.75;81.13;97978.45;437317;1247;107446;-41
2023/05/16 02:52:38;;;;;;;18.20;11.30;;;;;;;9.58;81.36;97977.21;437485;1251;98043;-40
2023/05/16 03:02:41;;;;;;;11.60;10.30;;;;;;;9.52;81.68;97975.13;437296;1253;108634;-41
2023/05/16 03:12:45;;;;;;;14.10;11.80;;;;;;;9.57;81.87;97979.52;437389;1247;99225;-40
2023/05/16 03:22:49;;;;;;;13.20;11.00;;;;;;;9.74;81.85;97985.25;437092;1252;111996;-41
2023/05/16 03:32:53;;;;;;;15.50;10.90;;;;;;;10.53;81.83;97995.52;437283;1247;108573;-41
2023/05/16 03:42:57;;;;;;;11.80;10.40;;;;;;;12.11;81.15;98008.85;436981;1247;450816;-42
2023/05/16 04:03:10;;;;;;;14.20;11.50;;;;;;;13.86;79.62;98014.11;437527;1252;99375;-41
2023/05/16 04:13:15;;;;;;;11.50;9.90;;;;;;;15.43;78.19;98019.27;437212;1253;111003;-42
2023/05/16 04:23:18;;;;;;;13.10;9.80;;;;;;;16.64;76.47;98035.80;437348;1253;106657;-41
2023/05/16 04:33:23;;;;;;;9.90;8.90;;;;;;;17.51;75.03;98042.52;437451;1252;98008;-41
2023/05/16 04:43:27;;;;;;;9.50;8.60;;;;;;;18.02;73.85;98042.16;437336;1248;108162;-41
2023/05/16 04:53:32;;;;;;;8.60;7.70;;;;;;;18.61;72.65;98050.85;437498;1248;99211;-40
2023/05/16 05:03:35;;;;;;;10.40;7.90;;;;;;;19.24;71.69;98066.73;437443;1248;113003;-40
2023/05/16 05:13:39;;;;;;;7.50;6.80;;;;;;;19.60;70.31;98069.43;437362;1261;106994;-40
2023/05/16 05:23:43;;;;;;;7.60;7.00;;;;;;;19.73;69.22;98075.90;437396;1253;99231;-41
2023/05/16 05:33:47;;;;;;;9.40;6.60;;;;;;;20.08;68.53;98088.41;437430;1249;108475;-41
2023/05/16 05:43:51;;;;;;;8.40;7.70;;;;;;;20.12;67.26;98100.35;437359;1253;99204;-40
2023/05/16 06:03:58;;;;;;;9.60;7.10;;;;;;;20.38;64.82;98121.38;437653;1250;107763;-48
2023/05/16 06:14:08;;;;;;;13.00;7.30;;;;;;;20.49;64.20;98133.48;437484;1253;99323;-40
2023/05/16 06:24:12;;;;;;;11.80;6.20;;;;;;;20.68;61.84;98134.52;437385;1248;106504;-39
2023/05/16 06:34:16;;;;;;;8.90;6.40;;;;;;;20.77;61.72;98141.48;437379;1252;99097;-41
2023/05/16 06:44:24;;;;;;;7.90;6.60;;;;;;;21.07;60.52;98135.92;437356;1261;113941;-41
2023/05/16 06:54:31;;;;;;;11.00;5.80;;;;;;;21.17;60.32;98133.46;437327;1254;108639;-40
2023/05/16 07:04:36;;;;;;;8.40;6.50;;;;;;;21.54;59.96;98147.88;437394;1246;98810;-41
2023/05/16 07:14:42;;;;;;;10.20;6.60;;;;;;;21.71;59.20;98157.88;437412;1251;107321;-42
2023/05/16 07:24:46;;;;;;;8.60;7.00;;;;;;;21.61;57.99;98152.36;437390;1250;97997;-40
2023/05/16 07:34:49;;;;;;;9.40;6.90;;;;;;;21.18;57.84;98141.23;437274;1248;109907;-40
2023/05/16 07:44:53;;;;;;;6.10;5.50;;;;;;;21.19;57.67;98146.48;437236;1247;109186;-40
2023/05/16 07:54:57;;;;;;;7.90;7.00;;;;;;;21.21;56.86;98154.41;437553;1248;99210;-40
2023/05/16 08:05:01;;;;;;;6.80;6.10;;;;;;;20.96;56.40;98163.73;437419;1248;107453;-41
2023/05/16 08:25:18;;;;;;;6.20;5.40;;;;;;;21.52;55.41;98195.05;436464;1253;110691;-41
2023/05/16 08:35:21;;;;;;;5.60;5.10;;;;;;;21.25;54.53;98214.95;436483;1251;107778;-40
2023/05/16 08:45:26;;;;;;;5.50;5.00;;;;;;;21.22;54.73;98238.92;436320;1248;99215;-42
2023/05/16 08:55:35;;;;;;;8.80;5.70;;;;;;;21.44;53.94;98243.23;436479;1251;106958;-40
2023/05/16 09:06:05;;;;;;;4.80;3.80;;;;;;;21.28;53.91;98260.88;436425;1251;99187;-42
2023/05/16 09:26:15;;;;;;;4.40;4.00;;;;;;;21.30;51.59;98255.98;436594;1248;108619;-41
2023/05/16 09:36:19;;;;;;;5.00;4.30;;;;;;;21.37;52.06;98241.93;436456;1251;98004;-41
2023/05/16 09:46:25;;;;;;;5.60;5.10;;;;;;;22.05;51.83;98238.15;436480;1248;108440;-41
2023/05/16 09:56:33;;;;;;;4.90;4.40;;;;;;;21.95;51.04;98244.77;436438;1248;99215;-41
2023/05/16 10:06:37;;;;;;;5.20;4.70;;;;;;;21.51;50.42;98258.86;436418;1247;110927;-41
2023/05/16 10:16:45;;;;;;;4.90;4.60;;;;;;;21.12;50.58;98271.81;436434;1247;107886;-41
2023/05/16 10:26:48;;;;;;;5.50;4.90;;;;;;;21.08;50.78;98262.87;436477;1251;99126;-41
2023/05/16 10:36:53;;;;;;;4.60;4.20;;;;;;;21.12;51.10;98264.03;436394;1248;108387;-42
2023/05/16 11:07:08;;;;;;;7.10;3.80;;;;;;;21.35;50.09;98250.40;436351;1248;108247;-41
2023/05/16 11:17:15;;;;;;;4.50;3.80;;;;;;;21.30;49.79;98255.61;436649;1247;98503;-41
2023/05/16 11:37:24;;;;;;;9.20;3.40;;;;;;;20.93;48.55;98252.75;436366;1251;99343;-42
2023/05/16 11:47:30;;;;;;;5.80;4.20;;;;;;;21.16;49.06;98247.08;436533;1251;111912;-42
2023/05/16 11:57:34;;;;;;;4.40;3.70;;;;;;;21.57;49.35;98238.41;436478;1248;108823;-43
2023/05/16 12:07:43;;;;;;;4.40;3.90;;;;;;;21.31;48.53;98242.26;436541;1251;99725;-41
2023/05/16 12:17:48;;;;;;;5.00;3.90;;;;;;;20.95;48.28;98253.42;436498;1247;106641;-42
2023/05/16 12:27:52;;;;;;;3.40;3.10;;;;;;;20.83;48.52;98250.00;436459;1248;97967;-43
2023/05/16 12:37:56;;;;;;;3.30;3.00;;;;;;;21.14;47.84;98239.09;436537;1251;110772;-41
2023/05/16 12:48:11;;;;;;;4.10;3.30;;;;;;;21.07;47.51;98243.39;436316;1247;108465;-42
2023/05/16 12:58:17;;;;;;;3.40;3.10;;;;;;;20.60;46.63;98239.86;436460;1251;99240;-41
2023/05/16 13:08:22;;;;;;;9.00;4.30;;;;;;;20.35;48.09;98234.61;436348;1247;107782;-44
2023/05/16 13:18:26;;;;;;;4.40;3.60;;;;;;;20.37;48.19;98228.35;436518;1247;98008;-43
2023/05/16 13:28:30;;;;;;;4.50;3.30;;;;;;;20.21;48.63;98228.36;436291;1251;112788;-41
2023/05/16 13:38:34;;;;;;;3.50;3.00;;;;;;;20.08;48.74;98229.23;436524;1247;108632;-41
2023/05/16 13:48:38;;;;;;;3.30;3.00;;;;;;;19.91;49.14;98233.33;436403;1247;99220;-42
2023/05/16 13:58:42;;;;;;;2.70;2.50;;;;;;;19.64;49.29;98238.71;436373;1247;108893;-42
2023/05/16 14:09:06;;;;;;;4.20;2.70;;;;;;;19.52;49.17;98235.21;436428;1247;99245;-42
2023/05/16 14:19:15;;;;;;;2.70;2.50;;;;;;;19.12;49.04;98235.81;436419;1247;110950;-42
2023/05/16 14:29:23;;;;;;;5.30;3.10;;;;;;;18.86;48.93;98238.45;436362;1251;109304;-42
2023/05/16 14:39:26;;;;;;;3.40;3.10;;;;;;;18.58;49.15;98234.10;436530;1247;99256;-42
2023/05/16 14:49:31;;;;;;;6.70;3.40;;;;;;;18.55;50.18;98231.95;436603;1251;107904;-41
2023/05/16 14:59:34;;;;;;;7.60;3.60;;;;;;;18.56;51.00;98231.77;436503;1251;99259;-42
2023/05/16 15:09:38;;;;;;;4.80;3.40;;;;;;;18.66;51.68;98234.86;436320;1251;112341;-42
2023/05/16 15:19:42;;;;;;;14.60;4.00;;;;;;;18.54;51.70;98234.59;436460;1251;107383;-42
2023/05/16 15:29:45;;;;;;;8.80;4.10;;;;;;;18.19;52.00;98230.75;436513;1248;97944;-41
2023/05/16 15:39:49;;;;;;;5.10;4.10;;;;;;;18.03;52.51;98228.34;436402;1247;108146;-41
2023/05/16 15:49:53;;;;;;;5.80;4.60;;;;;;;17.90;53.02;98221.88;436288;1247;367923;-41
2023/05/16 15:59:58;;;;;;;5.10;4.60;;;;;;;17.54;53.73;98226.39;436356;1247;110444;-42
2023/05/16 16:10:02;;;;;;;5.70;5.20;;;;;;;17.19;54.48;98233.38;436517;1247;107861;-42
2023/05/16 16:20:07;;;;;;;7.80;6.10;;;;;;;16.86;55.48;98239.48;436352;1248;99545;-42
2023/05/16 16:30:10;;;;;;;6.40;5.10;;;;;;;16.46;56.70;98240.50;436391;1251;108749;-41
2023/05/16 16:40:14;;;;;;;6.70;5.70;;;;;;;16.18;58.16;98237.20;436563;1251;99297;-42
2023/05/16 16:50:18;;;;;;;9.00;7.40;;;;;;;15.98;59.58;98235.48;436393;1251;111490;-42
2023/05/16 17:00:23;;;;;;;11.90;9.40;;;;;;;15.87;60.82;98234.36;436320;1247;108056;-43
2023/05/16 17:10:26;;;;;;;10.40;9.40;;;;;;;15.72;61.69;98236.55;436472;1250;99212;-42
2023/05/16 17:20:30;;;;;;;14.40;11.10;;;;;;;15.67;62.93;98237.96;436396;1247;108859;-41
2023/05/16 17:30:34;;;;;;;27.80;21.70;;;;;;;15.66;64.14;98245.59;436449;1250;99221;-42
2023/05/16 17:40:38;;;;;;;43.80;31.70;;;;;;;15.53;64.87;98254.27;436500;1251;112128;-42
2023/05/16 17:50:43;;;;;;;42.70;31.30;;;;;;;15.38;65.44;98278.55;436455;1251;107424;-44
2023/05/16 18:10:51;;;;;;;29.00;22.80;;;;;;;15.07;67.34;98318.84;436548;1251;106912;-42
2023/05/16 18:20:56;;;;;;;27.40;20.60;;;;;;;15.05;67.90;98322.30;436361;1253;99185;-43
2023/05/16 18:31:02;;;;;;;19.40;15.20;;;;;;;14.94;68.36;98315.96;436419;1261;113043;-42
2023/05/16 18:41:06;;;;;;;20.00;15.70;;;;;;;14.84;68.82;98313.88;436380;1251;107151;-42
2023/05/16 18:51:10;;;;;;;25.00;17.50;;;;;;;14.72;69.38;98317.65;436501;1251;99221;-41
2023/05/16 19:01:13;;;;;;;21.20;16.50;;;;;;;14.61;69.78;98333.37;436485;1248;107829;-43
2023/05/16 19:11:17;;;;;;;24.70;19.40;;;;;;;14.43;70.29;98344.16;436341;1251;99212;-43
2023/05/16 19:21:21;;;;;;;19.00;16.70;;;;;;;14.33;70.92;98360.77;436410;1251;111763;-43
2023/05/16 19:31:25;;;;;;;25.10;18.60;;;;;;;14.28;71.34;98370.58;436420;1247;107839;-43
2023/05/16 19:41:29;;;;;;;25.70;18.90;;;;;;;14.17;71.97;98369.09;436483;1251;99256;-43
2023/05/16 19:51:36;;;;;;;17.70;15.40;;;;;;;13.99;72.95;98374.38;436579;1247;108697;-42
2023/05/16 20:01:49;;;;;;;16.50;14.10;;;;;;;13.82;73.66;98379.27;436324;1253;99656;-42
2023/05/16 20:11:53;;;;;;;19.20;15.20;;;;;;;13.66;74.29;98386.34;436461;1250;111801;-42
2023/05/16 20:21:58;;;;;;;16.60;13.90;;;;;;;13.49;75.13;98387.85;436387;1252;108542;-43
2023/05/16 20:32:02;;;;;;;14.20;12.10;;;;;;;13.34;76.04;98384.88;436268;1248;99308;-42
2023/05/16 20:42:45;;;;;;;11.30;8.50;;;;;;;13.21;76.66;98392.35;436460;1247;108561;-43
2023/05/16 20:52:52;;;;;;;10.10;7.90;;;;;;;12.93;77.95;98378.00;436270;1253;99122;-42
2023/05/16 21:02:57;;;;;;;8.90;8.00;;;;;;;12.73;78.01;98369.23;436268;1253;111448;-41
2023/05/16 21:13:01;;;;;;;7.50;6.70;;;;;;;12.65;78.02;98368.85;436442;1247;108171;-43
2023/05/16 21:23:05;;;;;;;8.40;7.50;;;;;;;12.60;78.18;98369.81;436511;1253;98805;-42
2023/05/16 21:33:32;;;;;;;10.90;8.10;;;;;;;12.71;78.22;98359.30;436319;1247;107901;-43
2023/05/16 21:43:39;;;;;;;11.60;10.40;;;;;;;12.81;78.22;98345.56;436424;1263;99212;-43
2023/05/16 22:03:47;;;;;;;15.40;11.70;;;;;;;12.83;78.92;98325.33;436511;1253;108655;-42
2023/05/16 22:13:51;;;;;;;11.80;9.70;;;;;;;12.69;79.89;98325.71;436668;1253;97978;-41
2023/05/16 22:23:55;;;;;;;11.90;10.70;;;;;;;12.53;80.49;98326.80;436442;1247;107968;-43
2023/05/16 22:33:59;;;;;;;11.20;9.20;;;;;;;12.42;81.45;98325.42;436287;1252;99215;-42
2023/05/16 22:44:03;;;;;;;11.80;9.40;;;;;;;12.36;81.75;98309.13;436345;1248;111256;-42
2023/05/16 22:54:06;;;;;;;11.70;9.20;;;;;;;12.31;82.30;98302.19;436461;1247;107350;-44
2023/05/16 23:04:13;;;;;;;11.80;10.60;;;;;;;12.25;82.55;98293.79;436399;1251;99846;-42
2023/05/16 23:14:18;;;;;;;11.70;10.50;;;;;;;12.25;82.76;98303.13;436530;1247;108576;-45
2023/05/16 23:24:21;;;;;;;12.60;10.90;;;;;;;12.28;82.88;98300.29;436378;1253;98795;-43
2023/05/16 23:34:25;;;;;;;13.30;11.80;;;;;;;12.43;82.86;98302.31;436429;1253;112113;-43
2023/05/16 23:44:30;;;;;;;13.70;12.10;;;;;;;12.51;82.67;98305.68;436380;1247;107391;-45
2023/05/16 23:54:34;;;;;;;13.20;11.90;;;;;;;12.43;82.95;98305.44;436487;1253;99230;-42
